sensor_id;sensor_type;location;lat;lon;timestamp;pressure;altitude;pressure_sealevel;temperature;humidity
36092;BME280;22147;52.388;13.390;2023-03-03T00:00:09;101710.66;;;-1.85;100.00
36092;BME280;22147;52.388;13.390;2023-03-03T00:02:37;101709.22;;;-1.87;100.00
36092;BME280;22147;52.388;13.390;2023-03-03T00:05:05;101712.72;;;-1.80;100.00
36092;BME280;22147;52.388;13.390;2023-03-03T00:07:33;101723.03;;;-1.89;100.00
36092;BME280;22147;52.388;13.390;2023-03-03T00:10:02;101719.50;;;-1.89;100.00
36092;BME280;22147;52.388;13.390;2023-03-03T00:12:30;101718.25;;;-1.93;100.00
36092;BME280;22147;52.388;13.390;2023-03-03T00:14:59;101716.81;;;-1.96;100.00
36092;BME280;22147;52.388;13.390;2023-03-03T00:17:29;101730.44;;;-1.96;100.00
36092;BME280;22147;52.388;13.390;2023-03-03T00:20:32;101734.81;;;-1.95;100.00
36092;BME280;22147;52.388;13.390;2023-03-03T00:23:25;101747.84;;;-1.97;100.00
36092;BME280;22147;52.388;13.390;2023-03-03T00:26:01;101742.41;;;-1.97;100.00
36092;BME280;22147;52.388;13.390;2023-03-03T00:28:52;101742.56;;;-1.92;100.00
36092;BME280;22147;52.388;13.390;2023-03-03T00:31:33;101737.16;;;-1.98;100.00
36092;BME280;22147;52.388;13.390;2023-03-03T00:34:19;101739.44;;;-1.95;100.00
36092;BME280;22147;52.388;13.390;2023-03-03T00:36:57;101739.88;;;-1.98;100.00
36092;BME280;22147;52.388;13.390;2023-03-03T00:39:36;101727.75;;;-2.02;100.00
36092;BME280;22147;52.388;13.390;2023-03-03T00:42:18;101716.78;;;-1.89;100.00
36092;BME280;22147;52.388;13.390;2023-03-03T00:44:57;101719.53;;;-1.96;100.00
36092;BME280;22147;52.388;13.390;2023-03-03T00:47:42;101712.50;;;-1.78;100.00
36092;BME280;22147;52.388;13.390;2023-03-03T00:50:33;101707.16;;;-1.92;100.00
36092;BME280;22147;52.388;13.390;2023-03-03T00:53:13;101703.81;;;-1.94;100.00
36092;BME280;22147;52.388;13.390;2023-03-03T00:55:48;101716.22;;;-1.98;100.00
36092;BME280;22147;52.388;13.390;2023-03-03T00:58:21;101713.50;;;-1.98;100.00
36092;BME280;22147;52.388;13.390;2023-03-03T01:00:54;101713.22;;;-1.90;100.00
36092;BME280;22147;52.388;13.390;2023-03-03T01:03:27;101695.19;;;-1.91;100.00
36092;BME280;22147;52.388;13.390;2023-03-03T01:05:58;101705.78;;;-2.01;100.00
36092;BME280;22147;52.388;13.390;2023-03-03T01:08:28;101699.47;;;-2.01;100.00
36092;BME280;22147;52.388;13.390;2023-03-03T01:11:07;101704.88;;;-1.95;100.00
36092;BME280;22147;52.388;13.390;2023-03-03T01:13:45;101698.25;;;-2.06;100.00
36092;BME280;22147;52.388;13.390;2023-03-03T01:16:19;101700.81;;;-2.11;100.00
36092;BME280;22147;52.388;13.390;2023-03-03T01:18:50;101701.41;;;-2.09;100.00
36092;BME280;22147;52.388;13.390;2023-03-03T01:21:20;101696.31;;;-1.98;100.00
36092;BME280;22147;52.388;13.390;2023-03-03T01:23:50;101698.03;;;-2.04;100.00
36092;BME280;22147;52.388;13.390;2023-03-03T01:26:20;101700.09;;;-1.99;100.00
36092;BME280;22147;52.388;13.390;2023-03-03T01:28:50;101697.97;;;-1.97;100.00
36092;BME280;22147;52.388;13.390;2023-03-03T01:31:20;101699.88;;;-1.98;100.00
36092;BME280;22147;52.388;13.390;2023-03-03T01:33:51;101688.38;;;-2.00;100.00
36092;BME280;22147;52.388;13.390;2023-03-03T01:36:27;101686.09;;;-2.03;100.00
36092;BME280;22147;52.388;13.390;2023-03-03T01:38:56;101698.47;;;-2.07;100.00
36092;BME280;22147;52.388;13.390;2023-03-03T01:41:30;101692.53;;;-1.97;100.00
36092;BME280;22147;52.388;13.390;2023-03-03T01:44:00;101680.41;;;-2.01;100.00
36092;BME280;22147;52.388;13.390;2023-03-03T01:49:55;101677.78;;;-2.15;100.00
36092;BME280;22147;52.388;13.390;2023-03-03T01:52:43;101665.47;;;-2.17;100.00
36092;BME280;22147;52.388;13.390;2023-03-03T01:55:31;101668.97;;;-2.10;100.00
36092;BME280;22147;52.388;13.390;2023-03-03T01:58:22;101675.69;;;-2.13;100.00
36092;BME280;22147;52.388;13.390;2023-03-03T02:01:04;101665.56;;;-2.06;100.00
36092;BME280;22147;52.388;13.390;2023-03-03T02:03:41;101671.69;;;-2.10;100.00
36092;BME280;22147;52.388;13.390;2023-03-03T02:06:16;101673.78;;;-2.12;100.00
36092;BME280;22147;52.388;13.390;2023-03-03T02:09:15;101665.81;;;-2.07;100.00
36092;BME280;22147;52.388;13.390;2023-03-03T02:11:59;101676.34;;;-2.17;100.00
36092;BME280;22147;52.388;13.390;2023-03-03T02:14:34;101670.03;;;-2.11;100.00
36092;BME280;22147;52.388;13.390;2023-03-03T02:17:04;101662.84;;;-2.06;100.00
36092;BME280;22147;52.388;13.390;2023-03-03T02:22:47;101675.56;;;-1.99;100.00
36092;BME280;22147;52.388;13.390;2023-03-03T02:28:29;101680.38;;;-2.27;100.00
36092;BME280;22147;52.388;13.390;2023-03-03T02:31:06;101686.31;;;-2.05;100.00
36092;BME280;22147;52.388;13.390;2023-03-03T02:33:46;101676.75;;;-2.14;100.00
36092;BME280;22147;52.388;13.390;2023-03-03T02:36:31;101680.91;;;-2.11;100.00
36092;BME280;22147;52.388;13.390;2023-03-03T02:39:17;101689.81;;;-2.29;100.00
36092;BME280;22147;52.388;13.390;2023-03-03T02:42:26;101684.88;;;-2.39;100.00
36092;BME280;22147;52.388;13.390;2023-03-03T02:44:58;101691.81;;;-2.43;100.00
36092;BME280;22147;52.388;13.390;2023-03-03T02:47:28;101699.16;;;-2.50;100.00
36092;BME280;22147;52.388;13.390;2023-03-03T02:49:57;101686.16;;;-2.48;100.00
36092;BME280;22147;52.388;13.390;2023-03-03T02:52:27;101678.03;;;-2.55;100.00
36092;BME280;22147;52.388;13.390;2023-03-03T02:54:57;101677.00;;;-2.60;100.00
36092;BME280;22147;52.388;13.390;2023-03-03T02:57:27;101683.69;;;-2.50;100.00
36092;BME280;22147;52.388;13.390;2023-03-03T02:59:57;101681.22;;;-2.58;100.00
36092;BME280;22147;52.388;13.390;2023-03-03T03:02:27;101691.50;;;-2.67;100.00
36092;BME280;22147;52.388;13.390;2023-03-03T03:04:56;101682.63;;;-2.49;100.00
36092;BME280;22147;52.388;13.390;2023-03-03T03:07:26;101677.22;;;-2.55;100.00
36092;BME280;22147;52.388;13.390;2023-03-03T03:09:56;101670.50;;;-2.53;100.00
36092;BME280;22147;52.388;13.390;2023-03-03T03:12:26;101674.16;;;-2.72;100.00
36092;BME280;22147;52.388;13.390;2023-03-03T03:14:56;101688.38;;;-2.70;100.00
36092;BME280;22147;52.388;13.390;2023-03-03T03:17:25;101701.53;;;-2.67;100.00
36092;BME280;22147;52.388;13.390;2023-03-03T03:19:55;101698.56;;;-2.59;100.00
36092;BME280;22147;52.388;13.390;2023-03-03T03:22:25;101699.25;;;-2.70;100.00
36092;BME280;22147;52.388;13.390;2023-03-03T03:24:53;101692.00;;;-2.44;100.00
36092;BME280;22147;52.388;13.390;2023-03-03T03:27:22;101697.44;;;-2.44;100.00
36092;BME280;22147;52.388;13.390;2023-03-03T03:29:49;101702.56;;;-2.61;100.00
36092;BME280;22147;52.388;13.390;2023-03-03T03:32:19;101709.38;;;-2.46;100.00
36092;BME280;22147;52.388;13.390;2023-03-03T03:34:49;101711.34;;;-2.59;100.00
36092;BME280;22147;52.388;13.390;2023-03-03T03:37:19;101713.47;;;-2.68;100.00
36092;BME280;22147;52.388;13.390;2023-03-03T03:39:50;101709.28;;;-2.64;100.00
36092;BME280;22147;52.388;13.390;2023-03-03T03:42:20;101704.63;;;-2.57;100.00
36092;BME280;22147;52.388;13.390;2023-03-03T03:44:50;101701.75;;;-2.69;100.00
36092;BME280;22147;52.388;13.390;2023-03-03T03:47:20;101709.06;;;-2.62;100.00
36092;BME280;22147;52.388;13.390;2023-03-03T03:49:50;101711.53;;;-2.61;100.00
36092;BME280;22147;52.388;13.390;2023-03-03T03:52:19;101713.03;;;-2.65;100.00
36092;BME280;22147;52.388;13.390;2023-03-03T03:54:49;101702.09;;;-2.58;100.00
36092;BME280;22147;52.388;13.390;2023-03-03T03:57:19;101705.69;;;-2.58;100.00
36092;BME280;22147;52.388;13.390;2023-03-03T03:59:49;101704.50;;;-2.69;100.00
36092;BME280;22147;52.388;13.390;2023-03-03T04:02:19;101704.66;;;-2.63;100.00
36092;BME280;22147;52.388;13.390;2023-03-03T04:04:49;101693.34;;;-2.60;100.00
36092;BME280;22147;52.388;13.390;2023-03-03T04:07:17;101691.31;;;-2.72;100.00
36092;BME280;22147;52.388;13.390;2023-03-03T04:09:46;101683.88;;;-2.51;100.00
36092;BME280;22147;52.388;13.390;2023-03-03T04:12:15;101680.97;;;-2.56;100.00
36092;BME280;22147;52.388;13.390;2023-03-03T04:14:46;101680.75;;;-2.55;100.00
36092;BME280;22147;52.388;13.390;2023-03-03T04:17:22;101676.19;;;-2.61;100.00
36092;BME280;22147;52.388;13.390;2023-03-03T04:19:53;101681.66;;;-2.68;100.00
36092;BME280;22147;52.388;13.390;2023-03-03T04:22:23;101671.84;;;-2.75;100.00
36092;BME280;22147;52.388;13.390;2023-03-03T04:24:53;101668.84;;;-2.60;100.00
36092;BME280;22147;52.388;13.390;2023-03-03T04:27:23;101669.72;;;-2.60;100.00
36092;BME280;22147;52.388;13.390;2023-03-03T04:29:53;101673.72;;;-2.69;100.00
36092;BME280;22147;52.388;13.390;2023-03-03T04:32:22;101680.19;;;-2.63;100.00
36092;BME280;22147;52.388;13.390;2023-03-03T04:34:53;101671.38;;;-2.59;100.00
36092;BME280;22147;52.388;13.390;2023-03-03T04:37:37;101676.91;;;-2.79;100.00
36092;BME280;22147;52.388;13.390;2023-03-03T04:40:09;101674.00;;;-2.84;100.00
36092;BME280;22147;52.388;13.390;2023-03-03T04:42:39;101667.72;;;-2.84;100.00
36092;BME280;22147;52.388;13.390;2023-03-03T04:45:09;101677.56;;;-2.83;100.00
36092;BME280;22147;52.388;13.390;2023-03-03T04:47:37;101673.13;;;-2.78;100.00
36092;BME280;22147;52.388;13.390;2023-03-03T04:50:07;101669.38;;;-2.77;100.00
36092;BME280;22147;52.388;13.390;2023-03-03T04:52:37;101673.53;;;-2.74;100.00
36092;BME280;22147;52.388;13.390;2023-03-03T04:55:06;101681.91;;;-2.76;100.00
36092;BME280;22147;52.388;13.390;2023-03-03T04:57:39;101673.78;;;-2.82;100.00
36092;BME280;22147;52.388;13.390;2023-03-03T05:00:12;101684.88;;;-2.84;100.00
36092;BME280;22147;52.388;13.390;2023-03-03T05:02:43;101692.81;;;-2.82;100.00
36092;BME280;22147;52.388;13.390;2023-03-03T05:05:13;101682.75;;;-2.82;100.00
36092;BME280;22147;52.388;13.390;2023-03-03T05:07:43;101682.97;;;-2.77;100.00
36092;BME280;22147;52.388;13.390;2023-03-03T05:10:13;101680.66;;;-2.80;100.00
36092;BME280;22147;52.388;13.390;2023-03-03T05:12:43;101684.25;;;-2.86;100.00
36092;BME280;22147;52.388;13.390;2023-03-03T05:15:13;101676.50;;;-2.82;100.00
36092;BME280;22147;52.388;13.390;2023-03-03T05:17:43;101663.63;;;-3.00;100.00
36092;BME280;22147;52.388;13.390;2023-03-03T05:20:13;101665.28;;;-2.99;100.00
36092;BME280;22147;52.388;13.390;2023-03-03T05:22:43;101667.53;;;-2.83;100.00
36092;BME280;22147;52.388;13.390;2023-03-03T05:25:13;101667.69;;;-2.78;100.00
36092;BME280;22147;52.388;13.390;2023-03-03T05:27:43;101661.66;;;-2.87;100.00
36092;BME280;22147;52.388;13.390;2023-03-03T05:30:13;101677.56;;;-2.90;100.00
36092;BME280;22147;52.388;13.390;2023-03-03T05:32:43;101676.94;;;-2.92;100.00
36092;BME280;22147;52.388;13.390;2023-03-03T05:35:13;101673.19;;;-2.91;100.00
36092;BME280;22147;52.388;13.390;2023-03-03T05:37:43;101666.97;;;-2.98;100.00
36092;BME280;22147;52.388;13.390;2023-03-03T05:40:16;101669.03;;;-2.94;100.00
36092;BME280;22147;52.388;13.390;2023-03-03T05:42:46;101685.75;;;-2.97;100.00
36092;BME280;22147;52.388;13.390;2023-03-03T05:45:17;101679.88;;;-2.87;100.00
36092;BME280;22147;52.388;13.390;2023-03-03T05:47:53;101678.81;;;-2.79;100.00
36092;BME280;22147;52.388;13.390;2023-03-03T05:50:22;101681.28;;;-2.78;100.00
36092;BME280;22147;52.388;13.390;2023-03-03T05:52:52;101679.44;;;-2.84;100.00
36092;BME280;22147;52.388;13.390;2023-03-03T05:55:22;101681.53;;;-2.79;100.00
36092;BME280;22147;52.388;13.390;2023-03-03T05:57:52;101690.31;;;-2.84;100.00
36092;BME280;22147;52.388;13.390;2023-03-03T06:00:22;101687.16;;;-2.81;100.00
36092;BME280;22147;52.388;13.390;2023-03-03T06:02:52;101692.00;;;-2.83;100.00
36092;BME280;22147;52.388;13.390;2023-03-03T06:05:22;101693.44;;;-2.80;100.00
36092;BME280;22147;52.388;13.390;2023-03-03T06:07:52;101691.47;;;-2.60;100.00
36092;BME280;22147;52.388;13.390;2023-03-03T06:10:22;101694.03;;;-2.72;100.00
36092;BME280;22147;52.388;13.390;2023-03-03T06:12:52;101697.19;;;-2.75;100.00
36092;BME280;22147;52.388;13.390;2023-03-03T06:15:22;101699.97;;;-2.43;100.00
36092;BME280;22147;52.388;13.390;2023-03-03T06:17:52;101700.38;;;-2.46;100.00
36092;BME280;22147;52.388;13.390;2023-03-03T06:20:22;101705.31;;;-2.68;100.00
36092;BME280;22147;52.388;13.390;2023-03-03T06:22:52;101701.34;;;-2.72;100.00
36092;BME280;22147;52.388;13.390;2023-03-03T06:25:22;101701.44;;;-2.47;100.00
36092;BME280;22147;52.388;13.390;2023-03-03T06:27:52;101706.34;;;-2.62;100.00
36092;BME280;22147;52.388;13.390;2023-03-03T06:30:22;101710.47;;;-2.53;100.00
36092;BME280;22147;52.388;13.390;2023-03-03T06:32:52;101717.56;;;-2.52;100.00
36092;BME280;22147;52.388;13.390;2023-03-03T06:35:22;101716.81;;;-2.66;100.00
36092;BME280;22147;52.388;13.390;2023-03-03T06:37:51;101722.03;;;-2.64;100.00
36092;BME280;22147;52.388;13.390;2023-03-03T06:40:22;101720.91;;;-2.50;100.00
36092;BME280;22147;52.388;13.390;2023-03-03T06:42:52;101726.13;;;-2.49;100.00
36092;BME280;22147;52.388;13.390;2023-03-03T06:45:22;101726.59;;;-2.52;100.00
36092;BME280;22147;52.388;13.390;2023-03-03T06:47:51;101722.38;;;-2.54;100.00
36092;BME280;22147;52.388;13.390;2023-03-03T06:50:21;101724.31;;;-2.61;100.00
36092;BME280;22147;52.388;13.390;2023-03-03T06:53:12;101720.09;;;-2.51;100.00
36092;BME280;22147;52.388;13.390;2023-03-03T06:55:44;101725.06;;;-2.41;100.00
36092;BME280;22147;52.388;13.390;2023-03-03T06:58:19;101731.94;;;-2.38;100.00
36092;BME280;22147;52.388;13.390;2023-03-03T07:00:59;101739.28;;;-2.39;100.00
36092;BME280;22147;52.388;13.390;2023-03-03T07:03:33;101747.50;;;-2.52;100.00
36092;BME280;22147;52.388;13.390;2023-03-03T07:06:25;101742.00;;;-2.39;100.00
36092;BME280;22147;52.388;13.390;2023-03-03T07:08:56;101744.31;;;-2.42;100.00
36092;BME280;22147;52.388;13.390;2023-03-03T07:11:26;101747.25;;;-2.44;100.00
36092;BME280;22147;52.388;13.390;2023-03-03T07:13:55;101758.38;;;-2.52;100.00
36092;BME280;22147;52.388;13.390;2023-03-03T07:16:27;101756.72;;;-2.53;100.00
36092;BME280;22147;52.388;13.390;2023-03-03T07:18:59;101761.13;;;-2.59;100.00
36092;BME280;22147;52.388;13.390;2023-03-03T07:21:36;101763.22;;;-2.61;100.00
36092;BME280;22147;52.388;13.390;2023-03-03T07:24:28;101771.94;;;-2.46;100.00
36092;BME280;22147;52.388;13.390;2023-03-03T07:30:08;101746.75;;;-2.28;100.00
36092;BME280;22147;52.388;13.390;2023-03-03T07:32:46;101744.81;;;-2.20;100.00
36092;BME280;22147;52.388;13.390;2023-03-03T07:35:43;101748.91;;;-2.36;100.00
36092;BME280;22147;52.388;13.390;2023-03-03T07:41:16;101768.13;;;-2.31;100.00
36092;BME280;22147;52.388;13.390;2023-03-03T07:43:53;101773.34;;;-2.30;100.00
36092;BME280;22147;52.388;13.390;2023-03-03T07:52:40;101776.78;;;-2.02;100.00
36092;BME280;22147;52.388;13.390;2023-03-03T07:55:38;101781.19;;;-2.08;100.00
36092;BME280;22147;52.388;13.390;2023-03-03T08:05:48;101783.50;;;-2.05;100.00
36092;BME280;22147;52.388;13.390;2023-03-03T08:11:08;101786.47;;;-2.13;100.00
36092;BME280;22147;52.388;13.390;2023-03-03T08:13:42;101770.50;;;-2.03;100.00
36092;BME280;22147;52.388;13.390;2023-03-03T08:18:48;101781.03;;;-2.13;100.00
36092;BME280;22147;52.388;13.390;2023-03-03T08:21:23;101785.59;;;-2.07;100.00
36092;BME280;22147;52.388;13.390;2023-03-03T08:23:55;101793.28;;;-1.97;100.00
36092;BME280;22147;52.388;13.390;2023-03-03T08:26:25;101778.78;;;-1.91;100.00
36092;BME280;22147;52.388;13.390;2023-03-03T08:28:56;101773.56;;;-1.93;100.00
36092;BME280;22147;52.388;13.390;2023-03-03T08:31:26;101787.81;;;-1.97;100.00
36092;BME280;22147;52.388;13.390;2023-03-03T08:34:09;101774.63;;;-1.94;100.00
36092;BME280;22147;52.388;13.390;2023-03-03T08:36:42;101772.63;;;-1.80;100.00
36092;BME280;22147;52.388;13.390;2023-03-03T08:39:12;101775.41;;;-1.87;100.00
36092;BME280;22147;52.388;13.390;2023-03-03T08:41:42;101777.50;;;-1.82;100.00
36092;BME280;22147;52.388;13.390;2023-03-03T08:44:13;101768.25;;;-1.81;100.00
36092;BME280;22147;52.388;13.390;2023-03-03T08:46:43;101779.53;;;-1.77;100.00
36092;BME280;22147;52.388;13.390;2023-03-03T08:49:13;101785.06;;;-1.59;100.00
36092;BME280;22147;52.388;13.390;2023-03-03T08:51:41;101795.47;;;-1.49;100.00
36092;BME280;22147;52.388;13.390;2023-03-03T08:54:10;101787.16;;;-1.61;100.00
36092;BME280;22147;52.388;13.390;2023-03-03T08:56:38;101786.72;;;-1.58;100.00
36092;BME280;22147;52.388;13.390;2023-03-03T08:59:07;101798.41;;;-1.51;100.00
36092;BME280;22147;52.388;13.390;2023-03-03T09:01:37;101788.97;;;-1.48;100.00
36092;BME280;22147;52.388;13.390;2023-03-03T09:04:04;101793.28;;;-1.40;100.00
36092;BME280;22147;52.388;13.390;2023-03-03T09:06:33;101781.63;;;-1.48;100.00
36092;BME280;22147;52.388;13.390;2023-03-03T09:09:02;101788.91;;;-1.41;100.00
36092;BME280;22147;52.388;13.390;2023-03-03T09:11:30;101780.91;;;-1.36;100.00
36092;BME280;22147;52.388;13.390;2023-03-03T09:14:16;101783.91;;;-1.19;100.00
36092;BME280;22147;52.388;13.390;2023-03-03T09:16:52;101784.50;;;-1.17;100.00
36092;BME280;22147;52.388;13.390;2023-03-03T09:19:29;101784.16;;;-1.28;100.00
36092;BME280;22147;52.388;13.390;2023-03-03T09:22:21;101777.63;;;-1.20;100.00
36092;BME280;22147;52.388;13.390;2023-03-03T09:24:58;101773.94;;;-1.07;100.00
36092;BME280;22147;52.388;13.390;2023-03-03T09:27:34;101776.25;;;-1.11;100.00
36092;BME280;22147;52.388;13.390;2023-03-03T09:30:33;101782.56;;;-0.92;100.00
36092;BME280;22147;52.388;13.390;2023-03-03T09:33:46;101776.13;;;-0.79;100.00
36092;BME280;22147;52.388;13.390;2023-03-03T09:36:37;101778.78;;;-0.72;100.00
36092;BME280;22147;52.388;13.390;2023-03-03T09:39:21;101780.19;;;-0.63;100.00
36092;BME280;22147;52.388;13.390;2023-03-03T09:45:58;101765.63;;;-0.57;100.00
36092;BME280;22147;52.388;13.390;2023-03-03T09:49:02;101771.09;;;-0.57;100.00
36092;BME280;22147;52.388;13.390;2023-03-03T09:52:36;101778.34;;;-0.51;100.00
36092;BME280;22147;52.388;13.390;2023-03-03T10:05:26;101777.88;;;-0.29;100.00
36092;BME280;22147;52.388;13.390;2023-03-03T10:20:43;101786.69;;;0.45;100.00
36092;BME280;22147;52.388;13.390;2023-03-03T10:23:54;101786.78;;;0.38;100.00
36092;BME280;22147;52.388;13.390;2023-03-03T10:40:33;101771.91;;;0.34;100.00
36092;BME280;22147;52.388;13.390;2023-03-03T10:56:06;101778.47;;;0.57;100.00
36092;BME280;22147;52.388;13.390;2023-03-03T10:59:20;101771.63;;;0.66;100.00
36092;BME280;22147;52.388;13.390;2023-03-03T11:05:42;101771.88;;;0.76;100.00
36092;BME280;22147;52.388;13.390;2023-03-03T11:08:48;101775.28;;;0.72;100.00
36092;BME280;22147;52.388;13.390;2023-03-03T11:14:38;101779.94;;;0.71;100.00
36092;BME280;22147;52.388;13.390;2023-03-03T11:17:49;101776.03;;;1.02;100.00
36092;BME280;22147;52.388;13.390;2023-03-03T11:27:14;101775.16;;;1.14;100.00
36092;BME280;22147;52.388;13.390;2023-03-03T11:33:47;101768.16;;;1.18;100.00
36092;BME280;22147;52.388;13.390;2023-03-03T11:36:44;101774.34;;;1.01;100.00
36092;BME280;22147;52.388;13.390;2023-03-03T11:39:25;101773.63;;;0.94;100.00
36092;BME280;22147;52.388;13.390;2023-03-03T11:45:28;101780.91;;;1.00;100.00
36092;BME280;22147;52.388;13.390;2023-03-03T11:48:38;101765.44;;;1.06;100.00
36092;BME280;22147;52.388;13.390;2023-03-03T11:54:50;101768.88;;;1.25;100.00
36092;BME280;22147;52.388;13.390;2023-03-03T12:01:20;101759.72;;;0.96;100.00
36092;BME280;22147;52.388;13.390;2023-03-03T12:04:11;101749.63;;;1.08;100.00
36092;BME280;22147;52.388;13.390;2023-03-03T12:10:31;101748.25;;;1.34;100.00
36092;BME280;22147;52.388;13.390;2023-03-03T12:20:03;101721.94;;;1.74;100.00
36092;BME280;22147;52.388;13.390;2023-03-03T12:26:15;101718.66;;;1.89;100.00
36092;BME280;22147;52.388;13.390;2023-03-03T12:29:25;101726.38;;;1.92;100.00
36092;BME280;22147;52.388;13.390;2023-03-03T12:36:04;101706.53;;;1.85;100.00
36092;BME280;22147;52.388;13.390;2023-03-03T12:39:24;101701.25;;;1.66;100.00
36092;BME280;22147;52.388;13.390;2023-03-03T12:48:18;101698.19;;;1.79;100.00
36092;BME280;22147;52.388;13.390;2023-03-03T12:51:41;101694.50;;;2.02;100.00
36092;BME280;22147;52.388;13.390;2023-03-03T13:04:12;101685.94;;;1.99;100.00
36092;BME280;22147;52.388;13.390;2023-03-03T13:07:19;101682.06;;;1.95;100.00
36092;BME280;22147;52.388;13.390;2023-03-03T13:19:53;101676.00;;;1.93;100.00
36092;BME280;22147;52.388;13.390;2023-03-03T13:25:58;101660.88;;;2.07;100.00
36092;BME280;22147;52.388;13.390;2023-03-03T13:31:37;101668.78;;;2.20;100.00
36092;BME280;22147;52.388;13.390;2023-03-03T13:34:22;101672.00;;;2.17;100.00
36092;BME280;22147;52.388;13.390;2023-03-03T13:37:18;101661.78;;;2.13;100.00
36092;BME280;22147;52.388;13.390;2023-03-03T13:40:02;101663.44;;;2.14;100.00
36092;BME280;22147;52.388;13.390;2023-03-03T13:42:49;101657.72;;;2.15;100.00
36092;BME280;22147;52.388;13.390;2023-03-03T13:45:40;101659.97;;;2.01;100.00
36092;BME280;22147;52.388;13.390;2023-03-03T13:52:22;101664.38;;;2.02;100.00
36092;BME280;22147;52.388;13.390;2023-03-03T13:55:33;101654.91;;;2.10;100.00
36092;BME280;22147;52.388;13.390;2023-03-03T14:01:54;101648.09;;;2.30;100.00
36092;BME280;22147;52.388;13.390;2023-03-03T14:08:24;101632.44;;;2.47;100.00
36092;BME280;22147;52.388;13.390;2023-03-03T14:11:35;101637.75;;;2.54;100.00
36092;BME280;22147;52.388;13.390;2023-03-03T14:19:59;101634.00;;;2.60;100.00
36092;BME280;22147;52.388;13.390;2023-03-03T14:25:12;101629.88;;;2.40;100.00
36092;BME280;22147;52.388;13.390;2023-03-03T14:30:30;101621.41;;;2.42;100.00
36092;BME280;22147;52.388;13.390;2023-03-03T14:36:03;101616.22;;;2.62;100.00
36092;BME280;22147;52.388;13.390;2023-03-03T14:41:19;101618.31;;;2.55;100.00
36092;BME280;22147;52.388;13.390;2023-03-03T14:47:16;101600.59;;;2.63;100.00
36092;BME280;22147;52.388;13.390;2023-03-03T14:49:56;101605.06;;;2.91;100.00
36092;BME280;22147;52.388;13.390;2023-03-03T14:52:32;101607.28;;;2.72;100.00
36092;BME280;22147;52.388;13.390;2023-03-03T14:55:50;101599.63;;;2.74;100.00
36092;BME280;22147;52.388;13.390;2023-03-03T15:01:32;101599.44;;;2.81;100.00
36092;BME280;22147;52.388;13.390;2023-03-03T15:04:24;101595.63;;;2.82;100.00
36092;BME280;22147;52.388;13.390;2023-03-03T15:06:56;101591.22;;;2.81;100.00
36092;BME280;22147;52.388;13.390;2023-03-03T15:09:48;101589.63;;;2.85;100.00
36092;BME280;22147;52.388;13.390;2023-03-03T15:12:40;101584.50;;;2.94;100.00
36092;BME280;22147;52.388;13.390;2023-03-03T15:15:16;101591.53;;;2.84;100.00
36092;BME280;22147;52.388;13.390;2023-03-03T15:18:00;101592.03;;;2.81;100.00
36092;BME280;22147;52.388;13.390;2023-03-03T15:26:09;101580.44;;;2.74;100.00
36092;BME280;22147;52.388;13.390;2023-03-03T15:32:14;101568.41;;;2.75;100.00
36092;BME280;22147;52.388;13.390;2023-03-03T15:36:10;101577.13;;;2.72;100.00
36092;BME280;22147;52.388;13.390;2023-03-03T15:38:45;101567.19;;;2.88;100.00
36092;BME280;22147;52.388;13.390;2023-03-03T16:04:15;101556.00;;;2.73;100.00
36092;BME280;22147;52.388;13.390;2023-03-03T16:07:29;101545.72;;;2.85;100.00
36092;BME280;22147;52.388;13.390;2023-03-03T16:10:46;101552.69;;;2.71;100.00
36092;BME280;22147;52.388;13.390;2023-03-03T16:19:41;101550.25;;;2.52;100.00
36092;BME280;22147;52.388;13.390;2023-03-03T16:28:59;101545.84;;;2.51;100.00
36092;BME280;22147;52.388;13.390;2023-03-03T16:32:03;101539.59;;;2.34;100.00
36092;BME280;22147;52.388;13.390;2023-03-03T16:34:43;101535.94;;;2.28;100.00
36092;BME280;22147;52.388;13.390;2023-03-03T16:37:45;101534.50;;;2.42;100.00
36092;BME280;22147;52.388;13.390;2023-03-03T16:40:29;101541.75;;;2.32;100.00
36092;BME280;22147;52.388;13.390;2023-03-03T16:46:34;101536.72;;;2.07;100.00
36092;BME280;22147;52.388;13.390;2023-03-03T16:49:32;101529.91;;;2.09;100.00
36092;BME280;22147;52.388;13.390;2023-03-03T16:52:24;101534.63;;;2.14;100.00
36092;BME280;22147;52.388;13.390;2023-03-03T16:55:14;101536.72;;;2.07;100.00
36092;BME280;22147;52.388;13.390;2023-03-03T16:58:20;101536.50;;;1.91;100.00
36092;BME280;22147;52.388;13.390;2023-03-03T17:01:49;101530.13;;;1.86;100.00
36092;BME280;22147;52.388;13.390;2023-03-03T17:04:50;101529.22;;;1.80;100.00
36092;BME280;22147;52.388;13.390;2023-03-03T17:21:00;101529.94;;;1.41;100.00
36092;BME280;22147;52.388;13.390;2023-03-03T17:23:59;101529.63;;;1.38;100.00
36092;BME280;22147;52.388;13.390;2023-03-03T17:36:36;101522.38;;;1.15;100.00
36092;BME280;22147;52.388;13.390;2023-03-03T17:43:23;101524.13;;;1.21;100.00
36092;BME280;22147;52.388;13.390;2023-03-03T17:47:03;101520.63;;;1.26;100.00
36092;BME280;22147;52.388;13.390;2023-03-03T17:53:24;101530.72;;;1.08;100.00
36092;BME280;22147;52.388;13.390;2023-03-03T18:15:55;101518.53;;;1.16;100.00
36092;BME280;22147;52.388;13.390;2023-03-03T18:21:49;101518.69;;;1.09;100.00
36092;BME280;22147;52.388;13.390;2023-03-03T18:27:28;101514.19;;;1.03;100.00
36092;BME280;22147;52.388;13.390;2023-03-03T18:35:33;101503.75;;;1.00;100.00
36092;BME280;22147;52.388;13.390;2023-03-03T18:41:11;101506.59;;;1.22;100.00
36092;BME280;22147;52.388;13.390;2023-03-03T18:44:00;101502.94;;;1.16;100.00
36092;BME280;22147;52.388;13.390;2023-03-03T18:46:53;101500.72;;;1.13;100.00